Ashland, OH

6:02 AM EDT on June 30, 2015 (GMT -0400)
US Hwy 42 Ashland, OH 44805 | | Change Station
CLOSE
Current Station
Personal Weather Station
Location: Ashland, OH
Elevation: 1165 ft
Nearby Weather Stations

Elev 1165 ft 40.83 °N, 82.38 °W | Updated 7 seconds ago

Overcast
Overcast
61.9 °F
Feels Like 61.9 °F
N
0.0
Wind Variable Wind from North
Gusts 0.0 mph

Today
High -- | Low -- °F
--% Chance of Precip.
Yesterday
High -- | Low -- °F
Precip. -- in
6:00 AM 9:04 PM
Waxing Gibbous, 97% visible
Pressure 29.82 in
Visibility 6.0 miles
Clouds Few 500 ft
Overcast 1900 ft
Dew Point 60 °F
Humidity 92%
Rainfall 0.00 in
Snow Depth Not available.
UV 0 out of 12
Pollen 3.50 out of 12
Air Quality Not available.
Flu Activity Sporadic
METAR KMFD 300952Z AUTO 23004KT 6SM BR FEW005 OVC019 16/16 A2983 RMK AO2 SLP098 T01610156

More Conditions Fewer Conditions

Pressure 29.82 in
Visibility 6.0 miles
Clouds Few 500 ft
Overcast 1900 ft
Dew Point 60 °F
Humidity 92%
Rainfall 0.00 in
Snow Depth Not available.
UV 0 out of 12
Pollen 3.50 out of 12
Air Quality Not available.
Flu Activity Sporadic
METAR KMFD 300952Z AUTO 23004KT 6SM BR FEW005 OVC019 16/16 A2983 RMK AO2 SLP098 T01610156

More Conditions Fewer Conditions

10-Day Weather Forecast

×

Almanac

Astronomy

Jun. 30, 2015 Rise Set
Actual Time
Civil Twilight
Nautical Twilight
Astronomical Twilight
Moon
Length of Visible Light
Length of Day
Tomorrow will be .
, % of the Moon is Illuminated

Today's Extremes

State Highs State Lows

Community

WunderPhotos

Upload Photos

1,833,986 photos uploaded!

WunderBlogs® & News

Nearby

Air Quality

  Air Quality AQ Index Pollutant
Not available.

Snow Depth

Station Depth Elevation

Earthquake Activity

City Distance Mag. Time & Date
Minimum magnitude displayed is 2.5.

Coastal Water Temperatures

Place Temperature

Stations

Nearby Weather Stations

Station Location Temp. Windchill Dew Point Humidity Wind Precip. Elev Updated Type